createdAt,value
2022-12-12T00:02:43.555Z,37.90
2022-12-12T00:06:44.934Z,38.23
2022-12-12T00:10:46.074Z,36.53
2022-12-12T00:14:47.218Z,35.43
2022-12-12T00:18:48.469Z,32.67
2022-12-12T00:22:49.612Z,35.10
2022-12-12T00:26:50.597Z,36.57
2022-12-12T00:30:51.974Z,36.33
2022-12-12T00:34:53.204Z,36.17
2022-12-12T00:38:55.889Z,37.03
2022-12-12T00:42:57.231Z,36.77
2022-12-12T00:46:58.226Z,34.73
2022-12-12T00:51:05.785Z,36.40
2022-12-12T00:55:07.826Z,34.70
2022-12-12T00:59:08.808Z,37.50
2022-12-12T01:03:09.839Z,35.77
2022-12-12T01:07:10.948Z,36.17
2022-12-12T01:11:13.740Z,33.50
2022-12-12T01:15:15.881Z,32.10
2022-12-12T01:19:17.066Z,29.60
2022-12-12T01:23:18.007Z,33.73
2022-12-12T01:27:19.159Z,36.57
2022-12-12T01:31:20.829Z,36.50
2022-12-12T01:35:23.505Z,35.17
2022-12-12T01:39:24.485Z,36.43
2022-12-12T01:43:25.820Z,35.27
2022-12-12T01:47:27.203Z,35.63
2022-12-12T01:51:30.194Z,36.00
2022-12-12T01:55:31.172Z,36.40
2022-12-12T01:59:33.422Z,36.07
2022-12-12T02:03:34.949Z,38.47
2022-12-12T02:07:35.895Z,37.57
2022-12-12T02:11:46.364Z,34.80
2022-12-12T02:16:07.709Z,35.03
2022-12-12T02:20:41.607Z,36.97
2022-12-12T02:25:08.003Z,32.93
2022-12-12T02:29:29.528Z,36.43
2022-12-12T02:33:34.294Z,36.87
2022-12-12T02:37:45.048Z,40.23
2022-12-12T02:41:52.829Z,40.57
2022-12-12T02:45:57.612Z,39.17
2022-12-12T02:50:02.417Z,40.10
2022-12-12T02:54:05.467Z,36.90
2022-12-12T02:58:06.755Z,42.07
2022-12-12T03:02:41.008Z,38.37
2022-12-12T03:07:10.251Z,41.00
2022-12-12T03:11:21.278Z,38.07
2022-12-12T03:15:25.407Z,38.67
2022-12-12T03:19:39.570Z,40.77
2022-12-12T03:23:47.232Z,35.17
2022-12-12T03:27:55.006Z,32.17
2022-12-12T03:31:59.940Z,35.40
2022-12-12T03:36:16.735Z,33.43
2022-12-12T03:40:41.527Z,35.67
2022-12-12T03:44:51.969Z,37.17
2022-12-12T03:49:14.630Z,36.97
2022-12-12T03:53:25.515Z,39.03
2022-12-12T03:57:30.208Z,37.70
2022-12-12T04:01:35.172Z,39.67
2022-12-12T04:05:47.706Z,38.70
2022-12-12T04:10:07.801Z,41.13
2022-12-12T04:14:24.408Z,39.93
2022-12-12T04:18:41.140Z,39.93
2022-12-12T04:22:50.735Z,38.27
2022-12-12T04:27:01.298Z,42.87
2022-12-12T04:31:04.939Z,39.33
2022-12-12T04:35:13.104Z,41.03
2022-12-12T04:39:17.678Z,40.83
2022-12-12T04:43:22.482Z,44.93
2022-12-12T04:47:25.156Z,43.27
2022-12-12T04:51:29.959Z,42.63
2022-12-12T04:55:33.952Z,44.03
2022-12-12T04:59:35.434Z,42.43
2022-12-12T05:03:55.572Z,42.53
2022-12-12T05:08:09.087Z,41.53
2022-12-12T05:12:10.335Z,38.90
2022-12-12T05:16:33.586Z,38.83
2022-12-12T05:20:34.690Z,39.60
2022-12-12T05:24:35.680Z,37.13
2022-12-12T05:28:36.685Z,48.48
2022-12-12T05:32:37.919Z,45.87
2022-12-12T05:36:39.059Z,35.63
2022-12-12T05:40:40.101Z,32.60
2022-12-12T05:44:41.291Z,33.30
2022-12-12T05:48:42.603Z,35.63
2022-12-12T05:52:44.420Z,45.73
2022-12-12T05:56:45.482Z,44.17
2022-12-12T06:00:48.425Z,42.87
2022-12-12T06:04:49.570Z,37.07
2022-12-12T06:08:51.078Z,34.47
2022-12-12T06:12:52.237Z,34.57
2022-12-12T06:16:53.465Z,34.67
2022-12-12T06:20:58.421Z,32.30
2022-12-12T06:24:59.414Z,36.00
2022-12-12T06:29:00.717Z,32.83
2022-12-12T06:33:01.817Z,31.73
2022-12-12T06:37:03.268Z,42.45
2022-12-12T06:41:07.513Z,32.27
2022-12-12T06:45:09.194Z,40.07
2022-12-12T06:49:10.445Z,36.83
2022-12-12T06:53:12.114Z,33.07
2022-12-12T06:57:13.361Z,29.83
2022-12-12T07:01:18.065Z,31.87
2022-12-12T07:05:19.300Z,32.20
2022-12-12T07:09:20.473Z,32.37
2022-12-12T07:13:21.757Z,32.50
2022-12-12T07:17:22.736Z,32.20
2022-12-12T07:21:23.914Z,33.33
2022-12-12T07:25:25.002Z,35.63
2022-12-12T07:29:25.966Z,35.10
2022-12-12T07:33:34.314Z,32.47
2022-12-12T07:37:30.131Z,35.87
2022-12-12T07:41:31.277Z,34.63
2022-12-12T07:45:32.546Z,39.87
2022-12-12T07:49:33.641Z,35.87
2022-12-12T07:53:34.835Z,38.70
2022-12-12T07:57:37.102Z,31.67
2022-12-12T08:01:38.798Z,33.47
2022-12-12T08:05:41.393Z,29.13
2022-12-12T08:09:42.485Z,30.90
2022-12-12T08:13:43.798Z,29.87
2022-12-12T08:17:44.772Z,31.87
2022-12-12T08:21:46.070Z,29.70
2022-12-12T08:25:47.035Z,31.53
2022-12-12T08:29:53.039Z,34.03
2022-12-12T08:33:54.646Z,33.73
2022-12-12T08:37:56.454Z,31.83
2022-12-12T08:41:57.745Z,35.47
2022-12-12T08:46:03.242Z,34.53
2022-12-12T08:50:05.426Z,38.37
2022-12-12T08:54:07.436Z,34.70
2022-12-12T08:58:08.618Z,37.00
2022-12-12T09:02:12.248Z,32.37
2022-12-12T09:06:14.945Z,36.73
2022-12-12T09:10:16.201Z,35.97
2022-12-12T09:14:17.473Z,31.77
2022-12-12T09:18:20.152Z,34.50
2022-12-12T09:22:21.511Z,34.83
2022-12-12T09:26:22.510Z,37.40
2022-12-12T09:30:23.688Z,34.67
2022-12-12T09:34:24.869Z,33.50
2022-12-12T09:38:27.169Z,34.13
2022-12-12T09:42:31.117Z,34.03
2022-12-12T09:46:44.627Z,33.93
2022-12-12T09:50:48.589Z,34.07
2022-12-12T09:54:49.517Z,34.70
2022-12-12T09:59:09.451Z,43.50
2022-12-12T10:03:29.454Z,45.13
2022-12-12T10:07:34.214Z,36.40
2022-12-12T10:11:52.187Z,35.23
2022-12-12T10:15:56.332Z,40.27
2022-12-12T10:20:02.037Z,32.07
2022-12-12T10:24:12.949Z,30.80
2022-12-12T10:28:35.668Z,36.87
2022-12-12T10:32:46.349Z,39.90
2022-12-12T10:37:00.160Z,32.40
2022-12-12T10:41:17.113Z,33.80
2022-12-12T10:45:28.045Z,36.83
2022-12-12T10:49:30.207Z,33.43
2022-12-12T10:53:31.779Z,34.53
2022-12-12T10:57:36.077Z,37.37
2022-12-12T11:02:08.424Z,43.83
2022-12-12T11:05:41.476Z,46.03
2022-12-12T11:09:45.284Z,43.03
2022-12-12T11:13:52.934Z,85.47
2022-12-12T11:18:01.247Z,35.60
2022-12-12T11:22:03.750Z,47.17
2022-12-12T11:26:13.507Z,35.40
2022-12-12T11:30:38.721Z,43.63
2022-12-12T11:34:43.578Z,37.47
2022-12-12T11:38:51.307Z,23.80
2022-12-12T11:42:56.216Z,33.23
2022-12-12T11:47:17.464Z,24.90
2022-12-12T11:51:34.374Z,24.83
2022-12-12T11:56:00.429Z,25.47
2022-12-12T12:00:08.847Z,24.27
2022-12-12T12:04:19.649Z,25.97
2022-12-12T12:08:30.659Z,25.23
2022-12-12T12:12:38.155Z,23.07
2022-12-12T12:16:55.301Z,23.70
2022-12-12T12:21:02.998Z,22.43
2022-12-12T12:25:25.865Z,23.77
2022-12-12T12:29:30.645Z,23.13
2022-12-12T12:34:00.090Z,22.50
2022-12-12T12:38:14.077Z,22.33
2022-12-12T12:42:36.851Z,21.50
2022-12-12T12:46:53.982Z,21.57
2022-12-12T12:51:15.789Z,22.13
2022-12-12T12:55:20.571Z,25.63
2022-12-12T12:59:25.350Z,27.03
2022-12-12T13:03:30.180Z,27.93
2022-12-12T13:07:44.325Z,31.07
2022-12-12T13:11:48.453Z,34.23
2022-12-12T13:16:08.723Z,36.00
2022-12-12T13:20:19.980Z,36.67
2022-12-12T13:24:27.698Z,38.47
2022-12-12T13:28:32.653Z,37.93
2022-12-12T13:32:57.327Z,38.97
2022-12-12T13:36:59.134Z,39.20
2022-12-12T13:41:05.749Z,40.53
2022-12-12T13:45:38.292Z,39.37
2022-12-12T13:49:55.354Z,39.73
2022-12-12T13:54:14.209Z,42.17
2022-12-12T13:58:22.054Z,46.63
2022-12-12T14:02:32.728Z,47.03
2022-12-12T14:06:33.907Z,50.33
2022-12-12T14:10:38.452Z,39.37
2022-12-12T14:14:41.538Z,42.23
2022-12-12T14:18:58.942Z,46.40
2022-12-12T14:23:10.043Z,45.33
2022-12-12T14:27:11.362Z,46.43
2022-12-12T14:31:16.641Z,47.83
2022-12-12T14:35:24.761Z,44.30
2022-12-12T14:39:36.112Z,42.33
2022-12-12T14:43:41.247Z,45.80
2022-12-12T14:47:42.345Z,43.03
2022-12-12T14:51:47.465Z,45.60
2022-12-12T14:55:52.065Z,42.63
2022-12-12T14:59:53.135Z,46.10
2022-12-12T15:03:55.033Z,47.60
2022-12-12T15:07:59.332Z,44.83
2022-12-12T15:12:13.074Z,42.93
2022-12-12T15:16:14.354Z,52.10
2022-12-12T15:20:22.253Z,50.53
2022-12-12T15:24:29.167Z,54.47
2022-12-12T15:28:32.172Z,51.30
2022-12-12T15:32:33.240Z,52.77
2022-12-12T15:36:34.500Z,54.50
2022-12-12T15:40:37.000Z,52.40
2022-12-12T15:44:39.480Z,47.60
2022-12-12T15:48:46.972Z,52.05
2022-12-12T15:53:01.040Z,43.17
2022-12-12T15:57:02.377Z,45.13
2022-12-12T16:01:21.752Z,46.23
2022-12-12T16:05:26.319Z,50.23
2022-12-12T16:09:27.712Z,72.90
2022-12-12T16:13:43.712Z,89.93
2022-12-12T16:18:00.854Z,59.53
2022-12-12T16:22:22.333Z,47.25
2022-12-12T16:26:23.550Z,42.40
2022-12-12T16:30:25.983Z,54.75
2022-12-12T16:34:27.193Z,45.77
2022-12-12T16:38:29.950Z,50.20
2022-12-12T16:42:31.131Z,40.43
2022-12-12T16:46:32.152Z,43.03
2022-12-12T16:50:33.373Z,40.93
2022-12-12T16:54:34.530Z,40.63
2022-12-12T16:58:36.975Z,43.60
2022-12-12T17:02:38.678Z,40.60
2022-12-12T17:06:39.714Z,38.97
2022-12-12T17:10:41.367Z,38.97
2022-12-12T17:14:42.526Z,38.13
2022-12-12T17:18:43.820Z,38.85
2022-12-12T17:22:45.259Z,53.30
2022-12-12T17:26:46.544Z,55.83
2022-12-12T17:30:49.753Z,47.43
2022-12-12T17:34:50.791Z,45.50
2022-12-12T17:38:51.992Z,45.37
2022-12-12T17:42:52.983Z,51.17
2022-12-12T17:46:55.608Z,47.67
2022-12-12T17:51:02.170Z,64.73
2022-12-12T17:55:54.569Z,85.17
2022-12-12T17:59:08.035Z,55.67
2022-12-12T18:03:09.333Z,61.53
2022-12-12T18:07:10.497Z,96.37
2022-12-12T18:11:14.768Z,44.60
2022-12-12T18:15:15.973Z,42.70
2022-12-12T18:19:22.915Z,40.40
2022-12-12T18:23:24.221Z,39.97
2022-12-12T18:27:25.672Z,35.20
2022-12-12T18:31:27.713Z,58.68
2022-12-12T18:35:29.030Z,59.20
2022-12-12T18:39:30.475Z,44.43
2022-12-12T18:43:32.865Z,61.90
2022-12-12T18:47:34.804Z,60.20
2022-12-12T18:51:36.597Z,56.00
2022-12-12T18:55:44.061Z,57.20
2022-12-12T18:59:46.188Z,64.12
2022-12-12T19:03:51.408Z,55.80
2022-12-12T19:07:53.558Z,51.80
2022-12-12T19:12:02.211Z,76.75
2022-12-12T19:16:06.056Z,63.67
2022-12-12T19:20:08.514Z,50.47
2022-12-12T19:24:11.703Z,42.90
2022-12-12T19:28:12.987Z,45.27
2022-12-12T19:32:15.218Z,44.03
2022-12-12T19:36:24.171Z,42.03
2022-12-12T19:40:25.246Z,39.97
2022-12-12T19:44:26.634Z,55.67
2022-12-12T19:48:27.773Z,84.80
2022-12-12T19:52:28.857Z,73.63
2022-12-12T19:56:33.401Z,60.93
2022-12-12T20:00:35.033Z,57.30
2022-12-12T20:04:38.178Z,63.70
2022-12-12T20:08:39.326Z,69.03
2022-12-12T20:12:49.401Z,78.33
2022-12-12T20:16:44.318Z,64.73
2022-12-12T20:20:45.370Z,64.77
2022-12-12T20:24:46.690Z,59.20
2022-12-12T20:28:48.290Z,59.97
2022-12-12T20:32:49.249Z,56.10
2022-12-12T20:36:50.143Z,57.50
2022-12-12T20:40:51.266Z,60.80
2022-12-12T20:44:52.489Z,57.60
2022-12-12T20:48:53.493Z,55.47
2022-12-12T20:52:54.628Z,44.50
2022-12-12T20:56:57.517Z,42.73
2022-12-12T21:00:58.964Z,53.50
2022-12-12T21:05:00.185Z,46.07
2022-12-12T21:09:04.874Z,44.97
2022-12-12T21:13:06.315Z,46.80
2022-12-12T21:17:07.426Z,44.23
2022-12-12T21:21:11.859Z,47.97
2022-12-12T21:25:13.188Z,55.17
2022-12-12T21:29:15.521Z,57.77
2022-12-12T21:33:16.800Z,49.77
2022-12-12T21:37:18.071Z,44.90
2022-12-12T21:41:20.624Z,35.23
2022-12-12T21:45:21.967Z,41.37
2022-12-12T21:53:33.832Z,39.20
2022-12-12T21:57:35.098Z,48.07
2022-12-12T22:01:36.157Z,51.10
2022-12-12T22:05:37.112Z,51.90
2022-12-12T22:09:39.418Z,47.27
2022-12-12T22:13:42.103Z,50.80
2022-12-12T22:17:43.120Z,50.37
2022-12-12T22:21:46.346Z,47.50
2022-12-12T22:25:47.922Z,50.33
2022-12-12T22:29:48.890Z,43.17
2022-12-12T22:33:55.483Z,46.87
2022-12-12T22:37:56.483Z,45.07
2022-12-12T22:41:57.439Z,50.23
2022-12-12T22:46:06.610Z,46.63
2022-12-12T22:50:08.139Z,41.07
2022-12-12T22:54:09.391Z,38.10
2022-12-12T22:58:10.241Z,40.50
2022-12-12T23:02:11.184Z,43.30
2022-12-12T23:06:16.021Z,39.90
2022-12-12T23:10:17.429Z,42.37
2022-12-12T23:14:22.392Z,40.93
2022-12-12T23:18:23.687Z,42.73
2022-12-12T23:22:24.964Z,44.53
2022-12-12T23:26:29.257Z,43.80
2022-12-12T23:30:30.371Z,44.50
2022-12-12T23:34:31.335Z,44.57
2022-12-12T23:38:32.740Z,38.97
2022-12-12T23:42:33.755Z,39.63
2022-12-12T23:46:35.679Z,36.93
2022-12-12T23:50:36.794Z,34.27
2022-12-12T23:54:37.917Z,31.57
2022-12-12T23:58:39.029Z,33.43
